createdAt,value
2022-12-27T00:00:40.916Z,6.30
2022-12-27T00:03:08.370Z,5.90
2022-12-27T00:05:35.980Z,6.00
2022-12-27T00:08:03.529Z,5.60
2022-12-27T00:10:30.855Z,5.90
2022-12-27T00:12:58.264Z,5.80
2022-12-27T00:15:26.349Z,5.80
2022-12-27T00:17:53.698Z,5.90
2022-12-27T00:20:21.258Z,6.00
2022-12-27T00:22:48.567Z,5.80
2022-12-27T00:25:16.070Z,5.60
2022-12-27T00:27:43.448Z,5.80
2022-12-27T00:30:11.520Z,5.70
2022-12-27T00:32:39.874Z,5.80
2022-12-27T00:35:07.618Z,5.60
2022-12-27T00:37:34.953Z,5.80
2022-12-27T00:40:02.283Z,6.20
2022-12-27T00:42:29.647Z,5.70
2022-12-27T00:44:56.992Z,6.40
2022-12-27T00:47:24.341Z,6.50
2022-12-27T00:49:51.735Z,5.80
2022-12-27T00:52:19.051Z,5.90
2022-12-27T00:54:46.497Z,5.90
2022-12-27T00:57:13.905Z,5.80
2022-12-27T00:59:41.377Z,6.00
2022-12-27T01:02:08.723Z,6.00
2022-12-27T01:04:36.205Z,6.00
2022-12-27T01:07:03.807Z,5.90
2022-12-27T01:09:31.093Z,6.10
2022-12-27T01:11:58.475Z,6.10
2022-12-27T01:14:29.415Z,5.90
2022-12-27T01:16:57.065Z,6.00
2022-12-27T01:24:21.499Z,5.80
2022-12-27T01:26:48.955Z,6.00
2022-12-27T01:29:16.498Z,5.70
2022-12-27T01:31:43.960Z,5.70
2022-12-27T01:34:11.663Z,5.60
2022-12-27T01:36:43.387Z,5.70
2022-12-27T01:39:14.855Z,5.70
2022-12-27T01:42:03.270Z,5.70
2022-12-27T01:44:40.173Z,5.70
2022-12-27T01:47:22.674Z,5.70
2022-12-27T01:50:20.131Z,5.50
2022-12-27T01:53:24.759Z,5.70
2022-12-27T01:56:25.173Z,5.60
2022-12-27T01:59:05.660Z,5.70
2022-12-27T02:01:39.990Z,5.70
2022-12-27T02:04:28.299Z,5.70
2022-12-27T02:06:57.831Z,5.70
2022-12-27T02:09:36.596Z,5.70
2022-12-27T02:12:07.004Z,5.70
2022-12-27T02:14:44.076Z,5.80
2022-12-27T02:17:23.064Z,5.60
2022-12-27T02:19:59.739Z,5.70
2022-12-27T02:23:23.103Z,5.70
2022-12-27T02:26:03.925Z,5.80
2022-12-27T02:29:18.866Z,5.60
2022-12-27T02:32:03.193Z,5.60
2022-12-27T02:34:49.506Z,5.60
2022-12-27T02:37:17.770Z,5.90
2022-12-27T02:39:48.538Z,5.60
2022-12-27T02:42:38.598Z,5.60
2022-12-27T02:45:43.256Z,5.60
2022-12-27T02:48:33.904Z,5.50
2022-12-27T02:51:25.808Z,5.50
2022-12-27T02:54:23.854Z,5.50
2022-12-27T02:57:11.262Z,5.70
2022-12-27T03:00:16.541Z,5.40
2022-12-27T03:03:28.793Z,5.40
2022-12-27T03:06:41.011Z,5.50
2022-12-27T03:09:50.638Z,5.50
2022-12-27T03:13:04.298Z,5.40
2022-12-27T03:15:55.910Z,5.50
2022-12-27T03:18:38.402Z,5.40
2022-12-27T03:21:26.353Z,5.40
2022-12-27T03:24:15.434Z,5.40
2022-12-27T03:26:47.512Z,5.40
2022-12-27T03:29:37.014Z,5.40
2022-12-27T03:32:37.919Z,5.50
2022-12-27T03:35:19.608Z,5.20
2022-12-27T03:38:05.094Z,5.60
2022-12-27T03:41:16.246Z,5.60
2022-12-27T03:43:45.162Z,5.30
2022-12-27T03:46:34.787Z,5.70
2022-12-27T03:49:32.911Z,6.10
2022-12-27T03:52:28.136Z,5.30
2022-12-27T03:54:56.460Z,5.20
2022-12-27T03:57:26.292Z,5.60
2022-12-27T03:59:55.004Z,5.20
2022-12-27T04:02:23.101Z,5.30
2022-12-27T04:07:18.396Z,5.30
2022-12-27T04:10:04.615Z,5.20
2022-12-27T04:12:50.402Z,5.30
2022-12-27T04:15:36.447Z,5.70
2022-12-27T04:18:22.912Z,5.00
2022-12-27T04:21:08.762Z,5.20
2022-12-27T04:23:54.594Z,5.30
2022-12-27T04:29:27.157Z,5.10
2022-12-27T04:32:13.343Z,5.10
2022-12-27T04:34:42.792Z,5.10
2022-12-27T04:37:13.001Z,5.10
2022-12-27T04:42:28.599Z,5.10
2022-12-27T04:48:01.567Z,5.10
2022-12-27T04:50:50.142Z,5.10
2022-12-27T04:53:39.203Z,5.10
2022-12-27T04:56:07.359Z,7.30
2022-12-27T04:58:35.440Z,6.30
2022-12-27T05:01:23.450Z,4.90
2022-12-27T05:03:53.533Z,4.90
2022-12-27T05:06:21.055Z,5.10
2022-12-27T05:09:07.627Z,5.00
2022-12-27T05:11:53.450Z,4.80
2022-12-27T05:14:20.805Z,5.70
2022-12-27T05:16:48.144Z,4.80
2022-12-27T05:19:15.609Z,4.70
2022-12-27T05:22:04.959Z,5.10
2022-12-27T05:24:51.415Z,5.00
2022-12-27T05:27:19.438Z,5.40
2022-12-27T05:29:47.531Z,4.90
2022-12-27T05:32:14.846Z,5.00
2022-12-27T05:34:42.179Z,5.60
2022-12-27T05:37:09.632Z,5.10
2022-12-27T05:39:37.161Z,6.80
2022-12-27T05:42:04.589Z,5.20
2022-12-27T05:44:31.990Z,5.20
2022-12-27T05:46:59.374Z,5.50
2022-12-27T05:49:26.880Z,5.10
2022-12-27T05:51:54.197Z,5.80
2022-12-27T05:54:21.960Z,5.10
2022-12-27T05:56:49.424Z,5.30
2022-12-27T05:59:16.893Z,6.80
2022-12-27T06:01:44.343Z,5.20
2022-12-27T06:06:39.685Z,5.20
2022-12-27T06:14:02.358Z,5.30
2022-12-27T06:16:29.775Z,5.40
2022-12-27T06:18:57.248Z,5.40
2022-12-27T06:21:24.791Z,5.60
2022-12-27T06:23:52.249Z,5.40
2022-12-27T06:26:27.981Z,5.50
2022-12-27T06:28:57.177Z,5.60
2022-12-27T06:31:26.086Z,6.30
2022-12-27T06:34:03.160Z,6.20
2022-12-27T06:36:30.847Z,5.60
2022-12-27T06:38:59.641Z,5.70
2022-12-27T06:41:27.291Z,5.90
2022-12-27T06:43:57.204Z,5.70
2022-12-27T06:46:25.372Z,5.80
2022-12-27T06:48:52.987Z,5.80
2022-12-27T06:51:21.477Z,5.70
2022-12-27T06:53:49.208Z,5.90
2022-12-27T06:56:20.478Z,6.00
2022-12-27T06:58:58.373Z,6.00
2022-12-27T07:01:28.194Z,6.10
2022-12-27T07:03:58.619Z,6.20
2022-12-27T07:06:28.508Z,6.00
2022-12-27T07:08:57.887Z,6.50
2022-12-27T07:11:26.039Z,7.70
2022-12-27T07:13:55.054Z,5.90
2022-12-27T07:16:25.856Z,6.20
2022-12-27T07:18:55.570Z,6.10
2022-12-27T07:21:24.882Z,6.50
2022-12-27T07:26:33.668Z,6.30
2022-12-27T07:29:02.033Z,6.30
2022-12-27T07:31:32.724Z,6.40
2022-12-27T07:34:05.713Z,6.40
2022-12-27T07:36:40.424Z,6.50
2022-12-27T07:39:08.615Z,6.50
2022-12-27T07:41:37.009Z,6.60
2022-12-27T07:44:05.214Z,6.60
2022-12-27T07:46:33.595Z,6.70
2022-12-27T07:49:01.054Z,6.70
2022-12-27T07:51:29.462Z,6.80
2022-12-27T07:53:57.005Z,6.70
2022-12-27T07:56:32.832Z,6.80
2022-12-27T07:59:04.669Z,6.80
2022-12-27T08:02:01.782Z,6.80
2022-12-27T08:04:30.029Z,6.80
2022-12-27T08:07:06.255Z,6.80
2022-12-27T08:09:37.874Z,6.80
2022-12-27T08:12:06.128Z,6.80
2022-12-27T08:14:34.634Z,6.80
2022-12-27T08:17:22.162Z,6.80
2022-12-27T08:19:52.013Z,6.80
2022-12-27T08:22:19.613Z,7.20
2022-12-27T08:24:48.758Z,7.80
2022-12-27T08:27:24.326Z,7.70
2022-12-27T08:29:51.750Z,6.80
2022-12-27T08:32:19.221Z,6.90
2022-12-27T08:34:46.701Z,6.80
2022-12-27T08:37:15.798Z,6.80
2022-12-27T08:39:43.173Z,6.90
2022-12-27T08:42:14.144Z,8.00
2022-12-27T08:44:42.983Z,6.90
2022-12-27T08:47:10.381Z,6.90
2022-12-27T08:49:37.861Z,6.90
2022-12-27T08:52:05.739Z,6.90
2022-12-27T08:54:33.130Z,7.00
2022-12-27T08:57:00.512Z,6.90
2022-12-27T08:59:28.016Z,6.90
2022-12-27T09:01:56.329Z,6.90
2022-12-27T09:04:23.999Z,7.40
2022-12-27T09:06:52.956Z,7.00
2022-12-27T09:09:21.279Z,7.00
2022-12-27T09:11:48.866Z,7.00
2022-12-27T09:14:17.180Z,7.10
2022-12-27T09:16:49.420Z,7.10
2022-12-27T09:19:16.927Z,7.20
2022-12-27T09:21:44.492Z,7.30
2022-12-27T09:24:13.180Z,7.30
2022-12-27T09:26:42.517Z,7.40
2022-12-27T09:29:10.816Z,9.50
2022-12-27T09:31:38.215Z,7.50
2022-12-27T09:36:33.460Z,7.60
2022-12-27T09:39:01.329Z,10.50
2022-12-27T09:44:52.477Z,7.90
2022-12-27T09:47:30.941Z,7.70
2022-12-27T09:50:03.839Z,8.00
2022-12-27T09:52:40.002Z,8.50
2022-12-27T09:55:23.712Z,8.20
2022-12-27T09:57:56.885Z,8.20
2022-12-27T10:00:31.028Z,8.50
2022-12-27T10:03:05.844Z,8.20
2022-12-27T10:05:36.035Z,8.30
2022-12-27T10:08:28.425Z,9.20
2022-12-27T10:11:39.115Z,8.30
2022-12-27T10:14:15.735Z,8.40
2022-12-27T10:16:55.027Z,8.40
2022-12-27T10:19:25.464Z,8.40
2022-12-27T10:22:20.458Z,8.50
2022-12-27T10:24:56.452Z,8.40
2022-12-27T10:27:26.368Z,8.50
2022-12-27T10:29:57.261Z,8.00
2022-12-27T10:32:25.335Z,8.50
2022-12-27T10:34:57.579Z,8.90
2022-12-27T10:37:24.967Z,9.00
2022-12-27T10:39:52.420Z,10.10
2022-12-27T10:42:41.754Z,8.80
2022-12-27T10:45:33.943Z,8.90
2022-12-27T10:48:18.096Z,9.00
2022-12-27T10:51:06.346Z,9.10
2022-12-27T10:53:54.240Z,9.20
2022-12-27T10:56:31.768Z,9.30
2022-12-27T10:59:16.920Z,9.40
2022-12-27T11:01:46.712Z,9.50
2022-12-27T11:04:23.991Z,9.50
2022-12-27T11:07:10.518Z,9.60
2022-12-27T11:09:48.428Z,9.50
2022-12-27T11:12:32.996Z,9.90
2022-12-27T11:15:15.681Z,9.70
2022-12-27T11:17:50.085Z,9.70
2022-12-27T11:20:45.404Z,9.70
2022-12-27T11:23:16.839Z,9.60
2022-12-27T11:26:02.635Z,9.60
2022-12-27T11:28:38.466Z,9.90
2022-12-27T11:31:10.132Z,9.90
2022-12-27T11:33:41.865Z,9.90
2022-12-27T11:36:11.197Z,9.80
2022-12-27T11:38:42.999Z,9.80
2022-12-27T11:41:27.885Z,9.70
2022-12-27T11:44:25.232Z,9.90
2022-12-27T11:47:14.483Z,10.20
2022-12-27T11:50:17.057Z,10.40
2022-12-27T11:52:59.664Z,10.70
2022-12-27T11:56:01.225Z,10.80
2022-12-27T11:58:50.055Z,10.80
2022-12-27T12:01:41.224Z,10.70
2022-12-27T12:04:40.804Z,10.90
2022-12-27T12:07:38.274Z,11.00
2022-12-27T12:10:29.122Z,11.20
2022-12-27T12:13:12.018Z,11.20
2022-12-27T12:16:01.200Z,11.20
2022-12-27T12:19:00.310Z,11.00
2022-12-27T12:21:30.608Z,11.10
2022-12-27T12:24:35.906Z,11.30
2022-12-27T12:27:28.307Z,11.30
2022-12-27T12:30:12.517Z,11.20
2022-12-27T12:32:58.227Z,11.20
2022-12-27T12:35:40.436Z,11.20
2022-12-27T12:38:20.648Z,11.20
2022-12-27T12:41:11.202Z,11.20
2022-12-27T12:43:47.395Z,11.20
2022-12-27T12:46:32.991Z,11.10
2022-12-27T12:49:25.947Z,11.10
2022-12-27T12:52:24.694Z,11.00
2022-12-27T12:54:57.754Z,10.90
2022-12-27T12:57:43.828Z,10.90
2022-12-27T13:00:37.222Z,10.90
2022-12-27T13:03:35.702Z,11.00
2022-12-27T13:06:23.069Z,10.90
2022-12-27T13:09:22.026Z,10.90
2022-12-27T13:12:23.935Z,10.90
2022-12-27T13:15:20.426Z,11.10
2022-12-27T13:18:30.617Z,10.80
2022-12-27T13:21:04.151Z,11.00
2022-12-27T13:23:53.940Z,10.90
2022-12-27T13:26:47.518Z,10.60
2022-12-27T13:29:32.066Z,10.80
2022-12-27T13:32:03.244Z,10.80
2022-12-27T13:34:58.875Z,10.70
2022-12-27T13:37:35.177Z,10.80
2022-12-27T13:40:34.144Z,11.00
2022-12-27T13:43:37.156Z,11.20
2022-12-27T13:46:43.504Z,11.30
2022-12-27T13:49:29.169Z,11.40
2022-12-27T13:52:08.035Z,11.40
2022-12-27T13:54:57.043Z,11.10
2022-12-27T13:57:36.740Z,11.10
2022-12-27T14:00:13.298Z,11.20
2022-12-27T14:03:25.253Z,11.10
2022-12-27T14:05:52.872Z,11.20
2022-12-27T14:08:45.180Z,11.10
2022-12-27T14:11:28.735Z,11.00
2022-12-27T14:13:57.578Z,11.90
2022-12-27T14:16:47.635Z,11.00
2022-12-27T14:19:53.682Z,10.90
2022-12-27T14:22:54.953Z,10.90
2022-12-27T14:25:51.993Z,10.90
2022-12-27T14:28:59.515Z,10.80
2022-12-27T14:32:04.846Z,10.80
2022-12-27T14:34:41.346Z,10.80
2022-12-27T14:37:34.644Z,10.70
2022-12-27T14:40:23.724Z,10.60
2022-12-27T14:43:41.664Z,10.60
2022-12-27T14:46:30.326Z,10.30
2022-12-27T14:49:54.583Z,10.40
2022-12-27T14:52:42.696Z,10.10
2022-12-27T14:55:38.779Z,10.10
2022-12-27T14:58:29.094Z,10.10
2022-12-27T15:01:14.512Z,10.10
2022-12-27T15:04:12.917Z,10.00
2022-12-27T15:07:00.461Z,10.10
2022-12-27T15:09:30.770Z,10.20
2022-12-27T15:12:17.479Z,10.20
2022-12-27T15:15:22.264Z,10.20
2022-12-27T15:18:09.273Z,10.20
2022-12-27T15:20:55.628Z,10.30
2022-12-27T15:24:04.491Z,10.60
2022-12-27T15:26:50.865Z,10.30
2022-12-27T15:29:34.652Z,10.40
2022-12-27T15:32:27.860Z,10.40
2022-12-27T15:35:20.439Z,10.40
2022-12-27T15:40:38.777Z,10.70
2022-12-27T15:43:21.796Z,10.60
2022-12-27T15:46:18.221Z,10.40
2022-12-27T15:49:02.947Z,10.60
2022-12-27T15:51:50.512Z,10.20
2022-12-27T15:54:44.043Z,10.40
2022-12-27T15:58:00.840Z,10.30
2022-12-27T16:00:33.876Z,10.40
2022-12-27T16:03:38.205Z,10.30
2022-12-27T16:06:07.788Z,10.40
2022-12-27T16:11:08.153Z,10.10
2022-12-27T16:13:48.192Z,10.10
2022-12-27T16:16:28.319Z,10.00
2022-12-27T16:19:17.982Z,9.80
2022-12-27T16:21:46.905Z,9.90
2022-12-27T16:24:22.477Z,9.90
2022-12-27T16:27:20.138Z,9.80
2022-12-27T16:29:48.900Z,9.80
2022-12-27T16:32:28.171Z,9.70
2022-12-27T16:35:15.731Z,9.90
2022-12-27T16:37:55.071Z,9.70
2022-12-27T16:40:53.253Z,9.80
2022-12-27T16:43:20.968Z,9.70
2022-12-27T16:45:54.757Z,9.70
2022-12-27T16:48:34.102Z,9.70
2022-12-27T16:51:30.088Z,9.80
2022-12-27T16:54:26.621Z,9.60
2022-12-27T16:57:29.245Z,9.70
2022-12-27T17:00:39.716Z,9.70
2022-12-27T17:03:22.397Z,9.70
2022-12-27T17:08:45.227Z,11.10
2022-12-27T17:11:30.580Z,9.70
2022-12-27T17:14:16.536Z,9.60
2022-12-27T17:16:51.334Z,9.50
2022-12-27T17:19:33.940Z,9.80
2022-12-27T17:22:04.970Z,9.70
2022-12-27T17:27:30.181Z,9.60
2022-12-27T17:30:02.846Z,9.60
2022-12-27T17:32:54.990Z,9.60
2022-12-27T17:35:49.911Z,9.60
2022-12-27T17:41:03.704Z,9.50
2022-12-27T17:44:08.995Z,9.50
2022-12-27T17:46:55.198Z,9.50
2022-12-27T17:49:29.049Z,10.90
2022-12-27T17:52:24.212Z,11.20
2022-12-27T18:00:29.664Z,9.30
2022-12-27T18:02:59.993Z,9.20
2022-12-27T18:05:31.086Z,9.30
2022-12-27T18:08:08.748Z,9.40
2022-12-27T18:13:07.474Z,9.30
2022-12-27T18:15:43.107Z,9.20
2022-12-27T18:18:48.466Z,9.20
2022-12-27T18:21:25.207Z,9.20
2022-12-27T18:23:54.717Z,9.00
2022-12-27T18:26:33.476Z,9.10
2022-12-27T18:31:49.113Z,9.00
2022-12-27T18:34:45.877Z,9.00
2022-12-27T18:37:26.334Z,8.90
2022-12-27T18:40:02.483Z,9.80
2022-12-27T18:42:44.821Z,8.90
2022-12-27T18:45:23.175Z,8.90
2022-12-27T18:47:53.854Z,8.90
2022-12-27T18:50:24.664Z,8.90
2022-12-27T18:53:05.566Z,8.80
2022-12-27T18:58:05.453Z,8.80
2022-12-27T19:03:14.359Z,8.80
2022-12-27T19:05:56.620Z,8.80
2022-12-27T19:08:31.555Z,8.10
2022-12-27T19:13:30.690Z,8.70
2022-12-27T19:15:59.461Z,8.70
2022-12-27T19:18:31.525Z,8.60
2022-12-27T19:21:02.907Z,8.90
2022-12-27T19:23:38.648Z,8.60
2022-12-27T19:26:16.766Z,8.60
2022-12-27T19:28:45.427Z,8.60
2022-12-27T19:31:20.711Z,8.60
2022-12-27T19:33:54.702Z,8.70
2022-12-27T19:36:30.577Z,8.60
2022-12-27T19:39:00.281Z,8.70
2022-12-27T19:51:46.596Z,8.80
2022-12-27T19:54:17.480Z,8.90
2022-12-27T19:56:45.871Z,9.00
2022-12-27T19:59:22.436Z,8.90
2022-12-27T20:01:51.509Z,9.00
2022-12-27T20:06:49.128Z,9.00
2022-12-27T20:09:19.402Z,9.00
2022-12-27T20:11:49.609Z,9.20
2022-12-27T20:16:47.432Z,9.00
2022-12-27T20:19:16.606Z,9.10
2022-12-27T20:21:44.434Z,9.30
2022-12-27T20:24:12.779Z,9.20
2022-12-27T20:26:41.749Z,9.20
2022-12-27T20:29:10.029Z,9.20
2022-12-27T20:31:44.498Z,11.90
2022-12-27T20:36:47.792Z,9.60
2022-12-27T20:39:16.898Z,9.40
2022-12-27T20:41:45.734Z,9.30
2022-12-27T20:44:14.865Z,9.20
2022-12-27T20:51:38.277Z,9.40
2022-12-27T20:54:07.016Z,9.60
2022-12-27T20:56:35.336Z,9.60
2022-12-27T21:04:00.439Z,9.50
2022-12-27T21:06:29.608Z,9.30
2022-12-27T21:08:58.560Z,9.40
2022-12-27T21:11:31.277Z,11.60
2022-12-27T21:14:00.997Z,9.60
2022-12-27T21:16:30.667Z,9.90
2022-12-27T21:18:58.628Z,9.40
2022-12-27T21:21:28.847Z,9.30
2022-12-27T21:23:59.543Z,9.50
2022-12-27T21:26:36.260Z,9.50
2022-12-27T21:29:05.927Z,9.40
2022-12-27T21:31:34.173Z,9.50
2022-12-27T21:34:02.994Z,9.50
2022-12-27T21:36:32.589Z,9.50
2022-12-27T21:39:01.887Z,10.30
2022-12-27T21:41:31.866Z,9.40
2022-12-27T21:46:30.334Z,9.40
2022-12-27T21:49:03.250Z,9.40
2022-12-27T21:51:32.745Z,9.40
2022-12-27T21:54:01.077Z,9.30
2022-12-27T21:56:30.302Z,9.40
2022-12-27T21:58:59.494Z,9.40
2022-12-27T22:01:29.857Z,9.40
2022-12-27T22:03:58.583Z,9.40
2022-12-27T22:06:28.836Z,9.50
2022-12-27T22:09:01.353Z,9.30
2022-12-27T22:11:29.955Z,9.50
2022-12-27T22:13:57.706Z,9.50
2022-12-27T22:16:28.339Z,9.60
2022-12-27T22:18:56.628Z,9.60
2022-12-27T22:21:27.085Z,11.20
2022-12-27T22:23:57.925Z,9.60
2022-12-27T22:26:34.197Z,9.70
2022-12-27T22:31:32.849Z,9.70
2022-12-27T22:34:02.931Z,9.90
2022-12-27T22:38:59.746Z,9.70
2022-12-27T22:41:29.637Z,9.70
2022-12-27T22:44:02.596Z,11.40
2022-12-27T22:51:49.288Z,9.70
2022-12-27T22:54:17.744Z,9.70
2022-12-27T22:56:45.288Z,9.90
2022-12-27T22:59:15.222Z,9.80
2022-12-27T23:01:43.893Z,9.70
2022-12-27T23:04:13.760Z,11.40
2022-12-27T23:06:45.369Z,9.70
2022-12-27T23:11:41.607Z,9.90
2022-12-27T23:14:14.699Z,11.60
2022-12-27T23:16:46.056Z,10.10
2022-12-27T23:19:16.559Z,9.90
2022-12-27T23:21:44.275Z,10.00
2022-12-27T23:26:40.442Z,10.10
2022-12-27T23:29:07.993Z,10.10
2022-12-27T23:31:35.383Z,12.20
2022-12-27T23:34:27.749Z,10.20
2022-12-27T23:36:59.343Z,10.20
2022-12-27T23:41:55.133Z,10.20
2022-12-27T23:47:06.454Z,10.30
2022-12-27T23:52:02.350Z,10.30
2022-12-27T23:54:29.971Z,10.30
2022-12-27T23:56:57.794Z,10.40
2022-12-27T23:59:25.317Z,10.20
